Weather at Sultan Mahmud Badaruddin II Airport

Public forecast

Using degrees Celsius for public forecast. Weather courtesy of forecast.io.

Current aviation weather report (METAR) for Sultan Mahmud Badaruddin II Airport

Retrieved 2021/10/16 04:30 UTC (4 minutes ago):

WIPP 160430Z 13010KT 9999 FEW010 33/23 Q1007 NOSIG

Aviation forecast (TAF) for Sultan Mahmud Badaruddin II Airport

Retrieved 2021-10-16 00:57 UTC (4 hours ago):

TAF TAF WIPP 152300Z 1600/1624 16008KT 9999 SCT010 TEMPO 1621/1624 3000 BR